Bunch, Oklahoma
Current Conditions -  °F | °C
As of 8:15 AM on Thursday 27 Nov 2014 (Local Time) from KJSV Reporting Station
Clear Clear  
Wind Chill: -3°   Ceiling: Unl
Heat Index:   Visibility: 10mi
Dew Point: -3°   Wind: 6mph
Humidity: 80%   Direction: 330°NNW
Pressure: 30.57"   Gusts: NA
Location:  35.68°N, 94.76°W
Report Text: KJSV 271415Z AUTO 33005KT 10SM CLR 00/M03 A3057 RMK AO2
Loading
Personal Weather Stations






























Interactive Weather Map New forecast layout! Learn more

10-Day Weather Forecast

Advertisements
Track Severe Weather on mobile